TimeMST,TemperatureF,Dew PointF,Humidity,Sea Level PressureIn,VisibilityMPH,Wind Direction,Wind SpeedMPH,Gust SpeedMPH,PrecipitationIn,Events,Conditions,WindDirDegrees,DateUTC
12:53 AM,37.9,35.1,89,29.99,10.0,West,4.6,-,N/A,,Overcast,280,2012-11-25 07:53:00
1:07 AM,37.4,35.6,93,29.98,10.0,WNW,4.6,-,N/A,,Overcast,290,2012-11-25 08:07:00
1:33 AM,37.4,35.6,93,29.97,10.0,West,3.5,-,N/A,,Overcast,280,2012-11-25 08:33:00
1:53 AM,37.0,35.1,93,29.99,10.0,West,3.5,-,N/A,,Overcast,260,2012-11-25 08:53:00
2:53 AM,36.0,34.0,93,29.97,10.0,Calm,Calm,-,N/A,,Overcast,0,2012-11-25 09:53:00
3:53 AM,36.0,35.1,97,29.97,10.0,Calm,Calm,-,N/A,,Overcast,0,2012-11-25 10:53:00
4:53 AM,36.0,35.1,97,29.98,10.0,Calm,Calm,-,0.00,,Overcast,0,2012-11-25 11:53:00
5:53 AM,35.1,35.1,100,29.96,10.0,South,3.5,-,0.00,,Overcast,170,2012-11-25 12:53:00
6:53 AM,36.0,35.1,97,29.96,10.0,Calm,Calm,-,0.00,,Overcast,0,2012-11-25 13:53:00
7:25 AM,35.6,35.6,100,29.92,5.0,NNW,3.5,-,0.00,Rain,Light Rain,340,2012-11-25 14:25:00
7:41 AM,35.6,35.6,100,29.92,5.0,Calm,Calm,-,0.02,Rain,Light Rain,0,2012-11-25 14:41:00
7:53 AM,35.1,35.1,100,29.97,6.0,North,3.5,-,0.03,Rain,Light Rain,360,2012-11-25 14:53:00
8:41 AM,33.8,33.8,100,29.94,2.5,North,4.6,-,0.04,Snow,Light Snow,10,2012-11-25 15:41:00
8:47 AM,33.8,33.8,100,29.94,1.8,North,5.8,-,0.04,Snow,Light Snow,360,2012-11-25 15:47:00
8:53 AM,33.1,33.1,100,30.00,1.5,North,4.6,-,0.05,Snow,Light Snow,360,2012-11-25 15:53:00
9:12 AM,33.8,32.0,93,29.95,0.5,North,4.6,-,0.03,Fog-Snow,Snow,360,2012-11-25 16:12:00
9:27 AM,33.8,33.8,100,29.95,0.5,North,4.6,-,0.06,Fog-Snow,Snow,10,2012-11-25 16:27:00
9:49 AM,33.8,32.0,93,29.96,0.8,NNE,5.8,-,0.08,Snow,Light Snow,20,2012-11-25 16:49:00
9:53 AM,33.1,33.1,100,30.02,1.0,North,5.8,-,0.08,Snow,Light Snow,10,2012-11-25 16:53:00
10:12 AM,33.8,32.0,93,29.96,0.8,NNE,5.8,-,0.01,Snow,Light Snow,20,2012-11-25 17:12:00
10:22 AM,33.8,32.0,93,29.96,0.5,NNE,6.9,-,0.03,Fog-Snow,Snow,20,2012-11-25 17:22:00
10:53 AM,32.0,32.0,100,30.03,0.5,NNE,5.8,-,0.06,Fog-Snow,Snow,20,2012-11-25 17:53:00
11:11 AM,33.8,32.0,93,29.96,0.8,NNE,5.8,-,0.02,Snow,Light Snow,20,2012-11-25 18:11:00
11:14 AM,33.8,32.0,93,29.96,0.5,NNE,4.6,-,0.02,Fog-Snow,Snow,20,2012-11-25 18:14:00
11:28 AM,33.8,32.0,93,29.96,0.8,North,5.8,-,0.03,Snow,Light Snow,350,2012-11-25 18:28:00
11:32 AM,32.0,32.0,100,29.95,0.5,North,5.8,-,0.04,Fog-Snow,Snow,10,2012-11-25 18:32:00
11:44 AM,32.0,32.0,100,29.96,0.5,North,4.6,-,0.06,Fog-Snow,Snow,350,2012-11-25 18:44:00
11:53 AM,32.0,32.0,100,30.03,0.8,NNW,5.8,-,0.06,Snow,Light Snow,340,2012-11-25 18:53:00
12:18 PM,32.0,32.0,100,29.96,0.5,North,6.9,-,0.04,Fog-Snow,Snow,350,2012-11-25 19:18:00
12:53 PM,32.0,32.0,100,30.03,0.5,NNE,5.8,-,0.10,Fog-Snow,Snow,20,2012-11-25 19:53:00
1:03 PM,32.0,32.0,100,29.96,1.0,NNW,6.9,-,0.01,Snow,Light Snow,340,2012-11-25 20:03:00
1:20 PM,32.0,32.0,100,29.97,0.8,NNW,5.8,-,0.02,Snow,Light Snow,330,2012-11-25 20:20:00
1:34 PM,32.0,32.0,100,29.98,1.0,NNW,5.8,-,0.03,Snow,Light Snow,330,2012-11-25 20:34:00
1:53 PM,32.0,32.0,100,30.06,0.8,NNW,4.6,-,0.04,Snow,Light Snow,330,2012-11-25 20:53:00
2:00 PM,32.0,32.0,100,29.98,0.5,NW,4.6,-,0.01,Fog-Snow,Snow,320,2012-11-25 21:00:00
2:14 PM,32.0,32.0,100,29.99,1.0,NW,3.5,-,0.03,Snow,Light Snow,320,2012-11-25 21:14:00
2:53 PM,32.0,30.9,96,30.06,1.8,NNW,3.5,-,0.04,Snow,Light Snow,330,2012-11-25 21:53:00
3:53 PM,30.9,30.9,100,30.09,1.2,WSW,5.8,-,0.01,Snow,Light Snow,240,2012-11-25 22:53:00
4:34 PM,30.2,30.2,100,30.02,1.0,SW,5.8,-,0.02,Snow,Light Snow,220,2012-11-25 23:34:00
4:48 PM,30.2,30.2,100,30.02,1.8,SW,4.6,-,0.02,Snow,Light Snow,220,2012-11-25 23:48:00
4:53 PM,30.9,30.0,96,30.11,2.0,SW,4.6,-,0.02,Snow,Light Snow,220,2012-11-25 23:53:00
5:28 PM,30.2,30.2,100,30.04,1.8,WSW,3.5,-,0.01,Snow,Light Snow,240,2012-11-26 00:28:00
5:35 PM,30.2,30.2,100,30.05,2.5,SW,3.5,-,0.01,Snow,Light Snow,230,2012-11-26 00:35:00
5:43 PM,30.2,30.2,100,30.05,4.0,SW,3.5,-,0.01,Snow,Light Snow,220,2012-11-26 00:43:00
5:53 PM,30.9,30.9,100,30.14,1.8,Calm,Calm,-,0.02,Snow,Light Snow,0,2012-11-26 00:53:00
6:14 PM,30.2,30.2,100,30.05,1.2,Calm,Calm,-,0.01,Snow,Light Snow,0,2012-11-26 01:14:00
6:25 PM,30.2,30.2,100,30.06,3.0,SW,3.5,-,0.01,Snow,Light Snow,220,2012-11-26 01:25:00
6:36 PM,30.2,30.2,100,30.06,3.0,SW,3.5,-,0.01,Snow,Light Snow,230,2012-11-26 01:36:00
6:53 PM,30.9,30.0,96,30.15,4.0,WSW,5.8,-,0.02,Snow,Light Snow,250,2012-11-26 01:53:00
7:53 PM,30.0,30.0,100,30.17,10.0,West,3.5,-,0.00,,Overcast,280,2012-11-26 02:53:00
8:06 PM,30.2,28.4,93,30.09,5.0,North,5.8,-,0.00,Snow,Light Snow,360,2012-11-26 03:06:00
8:16 PM,30.2,28.4,93,30.09,6.0,North,5.8,-,0.00,Snow,Light Snow,350,2012-11-26 03:16:00
8:28 PM,28.4,28.4,100,30.09,9.0,North,4.6,-,0.00,,Overcast,360,2012-11-26 03:28:00
8:53 PM,28.9,28.0,96,30.21,6.0,North,9.2,-,0.00,Snow,Light Snow,350,2012-11-26 03:53:00
9:34 PM,28.4,28.4,100,30.12,2.5,NNE,6.9,-,0.00,Snow,Light Snow,20,2012-11-26 04:34:00
9:53 PM,28.9,28.0,96,30.23,3.0,NNE,5.8,-,0.00,Snow,Light Snow,20,2012-11-26 04:53:00
10:14 PM,28.4,26.6,93,30.14,2.5,NNE,8.1,-,0.00,Snow,Light Snow,20,2012-11-26 05:14:00
10:25 PM,28.4,26.6,93,30.14,2.5,NNE,8.1,-,0.00,Snow,Light Snow,20,2012-11-26 05:25:00
10:53 PM,28.0,27.0,96,30.27,2.5,NNE,8.1,-,0.01,Snow,Light Snow,20,2012-11-26 05:53:00
11:04 PM,28.4,26.6,93,30.17,1.8,North,5.8,-,0.00,Snow,Light Snow,10,2012-11-26 06:04:00
11:12 PM,28.4,26.6,93,30.18,1.2,North,5.8,-,0.01,Snow,Light Snow,360,2012-11-26 06:12:00
11:18 PM,28.4,26.6,93,30.19,0.8,North,5.8,-,0.02,Snow,Light Snow,350,2012-11-26 06:18:00
11:45 PM,26.6,26.6,100,30.20,1.2,NNW,8.1,-,0.04,Snow,Light Snow,330,2012-11-26 06:45:00
11:53 PM,27.0,26.1,96,30.31,1.8,NW,9.2,-,0.05,Snow,Light Snow,320,2012-11-26 06:53:00